Time;durP1;ratioP1;P1;durP2;ratioP2;P2;SDS_P1;SDS_P2;PMS_P1;PMS_P2;Temp;Humidity;BMP_temperature;BMP_pressure;BME280_temperature;BME280_humidity;BME280_pressure;Samples;Min_cycle;Max_cycle;Signal;HPM_P1;HPM_P2
2022/11/10 00:00:09;;;;;;;5.87;1.20;;;;;;;-145.14;100.00;70583.66;5004398;28;20279;-86
2022/11/10 00:02:35;;;;;;;3.23;1.10;;;;;;;-145.14;100.00;70583.66;5022237;28;21047;-85
2022/11/10 00:05:00;;;;;;;2.87;0.90;;;;;;;-145.14;100.00;70583.66;5019916;28;20499;-85
2022/11/10 00:07:27;;;;;;;4.80;1.20;;;;;;;-145.14;100.00;70583.66;5016891;28;20557;-86
2022/11/10 00:09:53;;;;;;;4.87;1.33;;;;;;;-145.14;100.00;70583.66;5020370;28;20185;-84
2022/11/10 00:12:19;;;;;;;7.53;1.70;;;;;;;-145.14;100.00;70583.66;5018724;28;20450;-88
2022/11/10 00:17:36;;;;;;;5.67;2.07;;;;;;;-145.14;100.00;70583.66;4993860;28;20438;-87
2022/11/10 00:20:02;;;;;;;6.70;2.17;;;;;;;-145.14;100.00;70583.66;5022851;28;20478;-87
2022/11/10 00:22:28;;;;;;;12.73;2.73;;;;;;;-145.14;100.00;70583.66;5014950;28;20621;-86
2022/11/10 00:24:53;;;;;;;7.00;2.20;;;;;;;-145.14;100.00;70583.66;5019775;28;20862;-86
2022/11/10 00:27:18;;;;;;;3.93;1.90;;;;;;;-145.14;100.00;70583.66;5019298;28;20262;-86
2022/11/10 00:29:44;;;;;;;10.70;2.27;;;;;;;-145.14;100.00;70583.66;5014616;28;20185;-86
2022/11/10 00:32:09;;;;;;;7.40;2.40;;;;;;;-145.14;100.00;70583.66;5012443;28;20188;-89
2022/11/10 00:34:35;;;;;;;5.90;1.93;;;;;;;-145.14;100.00;70583.66;5017232;28;20213;-88
2022/11/10 00:37:01;;;;;;;7.10;2.40;;;;;;;-145.14;100.00;70583.66;5012892;28;20641;-86
2022/11/10 00:39:27;;;;;;;9.50;1.83;;;;;;;-145.14;100.00;70583.66;5012774;28;20212;-87
2022/11/10 00:41:52;;;;;;;11.27;2.30;;;;;;;-145.14;100.00;70583.66;5019647;28;20500;-87
2022/11/10 00:44:18;;;;;;;6.87;1.83;;;;;;;-145.14;100.00;70583.66;5019506;28;20204;-87
2022/11/10 00:46:44;;;;;;;6.63;2.30;;;;;;;-145.14;100.00;70583.66;5017572;28;20180;-89
2022/11/10 00:49:10;;;;;;;7.13;2.30;;;;;;;-145.14;100.00;70583.66;5020295;28;20213;-86
2022/11/10 00:51:35;;;;;;;5.97;1.60;;;;;;;-145.14;100.00;70583.66;5017139;28;20491;-86
2022/11/10 00:54:01;;;;;;;7.00;2.50;;;;;;;-145.14;100.00;70583.66;5020034;28;20208;-88
2022/11/10 00:56:26;;;;;;;7.13;2.27;;;;;;;-145.14;100.00;70583.66;5018260;28;20188;-90
2022/11/10 00:58:52;;;;;;;4.33;1.80;;;;;;;-145.14;100.00;70583.66;5018068;28;20216;-88
2022/11/10 01:01:19;;;;;;;10.40;2.20;;;;;;;-145.14;100.00;70583.66;5012102;28;20238;-87
2022/11/10 01:03:44;;;;;;;8.10;1.90;;;;;;;-145.14;100.00;70583.66;5015255;28;20642;-87
2022/11/10 01:06:13;;;;;;;7.23;1.70;;;;;;;-145.14;100.00;70583.66;5002949;28;20501;-86
2022/11/10 01:08:40;;;;;;;6.03;1.77;;;;;;;-145.14;100.00;70583.66;5021484;28;20271;-90
2022/11/10 01:11:22;;;;;;;12.10;3.03;;;;;;;-145.14;100.00;70583.66;5019999;28;20439;-86
2022/11/10 01:13:50;;;;;;;8.10;1.77;;;;;;;-145.14;100.00;70583.66;5021227;28;20457;-88
2022/11/10 01:16:18;;;;;;;11.83;3.20;;;;;;;-145.14;100.00;70583.66;5022630;28;20459;-87
2022/11/10 01:18:48;;;;;;;11.70;2.70;;;;;;;-145.14;100.00;70583.66;5019955;28;20459;-88
2022/11/10 01:21:14;;;;;;;13.10;2.37;;;;;;;-145.14;100.00;70583.66;5021932;28;20426;-88
2022/11/10 01:23:39;;;;;;;10.00;2.17;;;;;;;-145.14;100.00;70583.66;5018649;28;20843;-86
2022/11/10 01:26:06;;;;;;;5.10;1.93;;;;;;;-145.14;100.00;70583.66;5005050;28;20188;-88
2022/11/10 01:28:33;;;;;;;8.27;2.90;;;;;;;-145.14;100.00;70583.66;5022403;28;20181;-88
2022/11/10 01:31:04;;;;;;;7.20;2.60;;;;;;;-145.14;100.00;70583.66;5021972;28;20424;-89
2022/11/10 01:33:30;;;;;;;14.90;3.37;;;;;;;-145.14;100.00;70583.66;5022187;28;20469;-89
2022/11/10 01:35:56;;;;;;;9.90;3.17;;;;;;;-145.14;100.00;70583.66;5017509;28;20458;-87
2022/11/10 01:38:22;;;;;;;7.40;2.30;;;;;;;-145.14;100.00;70583.66;5007773;28;20493;-90
2022/11/10 01:40:48;;;;;;;6.53;2.33;;;;;;;-145.14;100.00;70583.66;5001442;28;20442;-89
2022/11/10 01:43:14;;;;;;;11.07;2.87;;;;;;;-145.14;100.00;70583.66;5017825;28;20207;-89
2022/11/10 01:46:02;;;;;;;10.40;2.27;;;;;;;-145.14;100.00;70583.66;5020414;28;20829;-89
2022/11/10 01:48:31;;;;;;;11.57;2.77;;;;;;;-145.14;100.00;70583.66;5015713;28;20442;-88
2022/11/10 01:51:01;;;;;;;9.40;2.70;;;;;;;-145.14;100.00;70583.66;5012311;28;20452;-89
2022/11/10 01:53:29;;;;;;;9.17;2.60;;;;;;;-145.14;100.00;70583.66;5017374;28;20440;-88
2022/11/10 01:55:55;;;;;;;10.43;3.10;;;;;;;-145.14;100.00;70583.66;5019103;28;20500;-90
2022/11/10 01:58:25;;;;;;;6.37;2.40;;;;;;;-145.14;100.00;70583.66;5020689;28;20477;-88
2022/11/10 02:00:50;;;;;;;12.03;3.57;;;;;;;-145.14;100.00;70583.66;5016039;28;20438;-89
2022/11/10 02:03:33;;;;;;;10.43;2.90;;;;;;;-145.14;100.00;70583.66;5015548;28;20475;-87
2022/11/10 02:05:59;;;;;;;13.13;3.00;;;;;;;-145.14;100.00;70583.66;4998069;28;20853;-87
2022/11/10 02:08:26;;;;;;;10.37;3.83;;;;;;;-145.14;100.00;70583.66;5015015;28;20474;-87
2022/11/10 02:10:52;;;;;;;10.73;3.40;;;;;;;-145.14;100.00;70583.66;5000295;28;20859;-87
2022/11/10 02:13:17;;;;;;;18.13;3.07;;;;;;;-145.14;100.00;70583.66;5019187;28;20432;-86
2022/11/10 02:15:43;;;;;;;10.80;3.47;;;;;;;-145.14;100.00;70583.66;5015935;28;20243;-88
2022/11/10 02:18:08;;;;;;;12.10;3.33;;;;;;;-145.14;100.00;70583.66;5017696;28;20223;-88
2022/11/10 02:20:34;;;;;;;11.17;3.47;;;;;;;-145.14;100.00;70583.66;5019082;28;20173;-89
2022/11/10 02:23:14;;;;;;;11.20;3.13;;;;;;;-145.14;100.00;70583.66;5020643;28;20183;-88
2022/11/10 02:25:40;;;;;;;10.83;3.70;;;;;;;-145.14;100.00;70583.66;5019903;28;20673;-87
2022/11/10 02:28:05;;;;;;;14.57;3.70;;;;;;;-145.14;100.00;70583.66;5019656;28;20458;-88
2022/11/10 02:30:31;;;;;;;8.03;3.27;;;;;;;-145.14;100.00;70583.66;5001383;28;20268;-89
2022/11/10 02:32:56;;;;;;;15.23;4.20;;;;;;;-145.14;100.00;70583.66;5019738;28;20259;-88
2022/11/10 02:35:22;;;;;;;11.10;3.27;;;;;;;-145.14;100.00;70583.66;5018800;28;20254;-88
2022/11/10 02:37:47;;;;;;;11.70;3.93;;;;;;;-145.14;100.00;70583.66;5004701;28;20175;-89
2022/11/10 02:40:13;;;;;;;10.03;3.60;;;;;;;-145.14;100.00;70583.66;5019745;28;20731;-87
2022/11/10 02:42:39;;;;;;;13.20;4.27;;;;;;;-145.14;100.00;70583.66;5018755;28;20212;-90
2022/11/10 02:45:05;;;;;;;14.60;4.13;;;;;;;-145.14;100.00;70583.66;5019133;28;20458;-88
2022/11/10 02:47:31;;;;;;;12.40;4.23;;;;;;;-145.14;100.00;70583.66;4998518;28;20200;-87
2022/11/10 02:49:56;;;;;;;11.50;3.80;;;;;;;-145.14;100.00;70583.66;5014296;28;20439;-87
2022/11/10 02:52:22;;;;;;;14.10;4.43;;;;;;;-145.14;100.00;70583.66;5008881;28;20238;-85
2022/11/10 02:54:47;;;;;;;16.43;4.43;;;;;;;-145.14;100.00;70583.66;5012039;28;20646;-90
2022/11/10 02:57:13;;;;;;;11.67;4.40;;;;;;;-145.14;100.00;70583.66;4996151;28;20188;-87
2022/11/10 02:59:38;;;;;;;11.03;4.20;;;;;;;-145.14;100.00;70583.66;5013586;28;20679;-88
2022/11/10 03:02:03;;;;;;;13.37;4.60;;;;;;;-145.14;100.00;70583.66;5016448;28;20193;-88
2022/11/10 03:04:29;;;;;;;12.87;3.90;;;;;;;-145.14;100.00;70583.66;5017223;28;20215;-89
2022/11/10 03:06:54;;;;;;;10.63;4.50;;;;;;;-145.14;100.00;70583.66;5016322;28;20192;-89
2022/11/10 03:09:20;;;;;;;12.57;4.47;;;;;;;-145.14;100.00;70583.66;5018985;28;20682;-88
2022/11/10 03:11:45;;;;;;;15.20;4.30;;;;;;;-145.14;100.00;70583.66;5017365;28;20193;-84
2022/11/10 03:14:11;;;;;;;9.27;3.67;;;;;;;-145.14;100.00;70583.66;5019718;28;20591;-88
2022/11/10 03:16:36;;;;;;;18.10;5.25;;;;;;;-145.14;100.00;70583.66;5035504;22;20231;-77
2022/11/10 03:19:02;;;;;;;10.93;3.73;;;;;;;-145.14;100.00;70583.66;5044347;28;20473;-76
2022/11/10 03:21:27;;;;;;;13.83;3.80;;;;;;;-145.14;100.00;70583.66;5059690;28;20182;-76
2022/11/10 03:23:53;;;;;;;15.00;4.63;;;;;;;-145.14;100.00;70583.66;5056941;28;20180;-76
2022/11/10 03:26:18;;;;;;;11.40;3.80;;;;;;;-145.14;100.00;70583.66;5059309;28;20180;-75
2022/11/10 03:28:43;;;;;;;13.80;4.03;;;;;;;-145.14;100.00;70583.66;5044051;28;20549;-75
2022/11/10 03:31:09;;;;;;;15.10;4.93;;;;;;;-145.14;100.00;70583.66;5044846;28;20198;-76
2022/11/10 03:33:34;;;;;;;14.80;5.40;;;;;;;-145.14;100.00;70583.66;5043277;28;20175;-76
2022/11/10 03:36:00;;;;;;;14.53;4.00;;;;;;;-145.14;100.00;70583.66;5047631;28;20643;-76
2022/11/10 03:38:25;;;;;;;12.10;4.10;;;;;;;-145.14;100.00;70583.66;5048843;28;20214;-76
2022/11/10 03:40:51;;;;;;;13.53;4.30;;;;;;;-145.14;100.00;70583.66;5048005;28;20266;-75
2022/11/10 03:43:16;;;;;;;17.50;5.20;;;;;;;-145.14;100.00;70583.66;5050776;28;20671;-76
2022/11/10 03:45:43;;;;;;;11.13;4.23;;;;;;;-145.14;100.00;70583.66;5052229;28;20305;-77
2022/11/10 03:48:09;;;;;;;8.73;4.40;;;;;;;-145.14;100.00;70583.66;5043978;28;20268;-75
2022/11/10 03:50:35;;;;;;;12.57;4.17;;;;;;;-145.14;100.00;70583.66;5045857;28;20461;-75
2022/11/10 03:53:00;;;;;;;10.00;4.20;;;;;;;-145.14;100.00;70583.66;5047647;28;20188;-75
2022/11/10 03:55:26;;;;;;;12.90;4.20;;;;;;;-145.14;100.00;70583.66;5051728;28;20443;-75
2022/11/10 03:57:51;;;;;;;10.60;4.13;;;;;;;-145.14;100.00;70583.66;5045099;28;20291;-75
2022/11/10 04:00:17;;;;;;;11.60;4.37;;;;;;;-145.14;100.00;70583.66;5051147;28;20666;-77
2022/11/10 04:02:42;;;;;;;20.50;5.53;;;;;;;-145.14;100.00;70583.66;5053648;28;20183;-75
2022/11/10 04:10:43;;;;;;;14.40;4.43;;;;;;;-145.14;100.00;70583.66;5048215;28;20525;-76
2022/11/10 04:15:53;;;;;;;11.30;3.70;;;;;;;-145.14;100.00;70583.66;5050655;28;20585;-75
2022/11/10 04:18:25;;;;;;;11.47;4.43;;;;;;;-145.14;100.00;70583.66;5050506;28;20470;-75
2022/11/10 04:20:59;;;;;;;8.17;3.23;;;;;;;-145.14;100.00;70583.66;5048884;28;20214;-76
2022/11/10 04:23:30;;;;;;;12.20;4.13;;;;;;;-145.14;100.00;70583.66;5057658;28;20428;-77
2022/11/10 04:28:55;;;;;;;13.17;4.43;;;;;;;-145.14;100.00;70583.66;5054573;28;20959;-76
2022/11/10 04:31:22;;;;;;;15.77;3.87;;;;;;;-145.14;100.00;70583.66;5054360;28;20434;-76
2022/11/10 04:33:49;;;;;;;12.17;5.27;;;;;;;-145.14;100.00;70583.66;5055878;28;20512;-76
2022/11/10 04:36:20;;;;;;;21.17;4.40;;;;;;;-145.14;100.00;70583.66;5056359;28;20414;-76
2022/11/10 04:38:46;;;;;;;15.87;4.37;;;;;;;-145.14;100.00;70583.66;5053529;28;20986;-76
2022/11/10 04:41:12;;;;;;;10.73;4.00;;;;;;;-145.14;100.00;70583.66;5055950;28;20433;-75
2022/11/10 04:43:38;;;;;;;13.60;4.23;;;;;;;-145.14;100.00;70583.66;5052154;28;20171;-75
2022/11/10 04:46:05;;;;;;;10.77;4.13;;;;;;;-145.14;100.00;70583.66;5048412;28;20183;-76
2022/11/10 04:48:31;;;;;;;11.57;3.67;;;;;;;-145.14;100.00;70583.66;5049008;28;20651;-78
2022/11/10 04:51:02;;;;;;;12.70;3.83;;;;;;;-145.14;100.00;70583.66;5042292;28;20443;-76
2022/11/10 04:53:28;;;;;;;13.40;4.50;;;;;;;-145.14;100.00;70583.66;5039334;28;20812;-77
2022/11/10 04:55:54;;;;;;;14.80;4.40;;;;;;;-145.14;100.00;70583.66;5046340;28;20441;-76
2022/11/10 04:58:19;;;;;;;17.63;4.47;;;;;;;-145.14;100.00;70583.66;5046149;28;20361;-77
2022/11/10 05:00:45;;;;;;;15.47;5.10;;;;;;;-145.14;100.00;70583.66;5037613;28;20294;-76
2022/11/10 05:03:12;;;;;;;11.30;4.07;;;;;;;-145.14;100.00;70583.66;5042642;28;20190;-75
2022/11/10 05:05:38;;;;;;;10.90;4.43;;;;;;;-145.14;100.00;70583.66;5041710;28;20211;-76
2022/11/10 05:08:04;;;;;;;12.73;4.90;;;;;;;-145.14;100.00;70583.66;5043624;28;20544;-76
2022/11/10 05:10:29;;;;;;;12.87;4.43;;;;;;;-145.14;100.00;70583.66;5038652;28;20279;-76
2022/11/10 05:12:55;;;;;;;11.93;5.00;;;;;;;-145.14;100.00;70583.66;5041760;28;20429;-76
2022/11/10 05:15:22;;;;;;;14.77;4.93;;;;;;;-145.14;100.00;70583.66;5053121;28;20241;-76
2022/11/10 05:17:52;;;;;;;15.10;5.03;;;;;;;-145.14;100.00;70583.66;5042700;28;20820;-77
2022/11/10 05:20:20;;;;;;;12.60;4.53;;;;;;;-145.14;100.00;70583.66;5044762;28;20450;-77
2022/11/10 05:23:36;;;;;;;15.27;4.60;;;;;;;-145.14;100.00;70583.66;5043069;28;20597;-77
2022/11/10 05:25:33;;;;;;;13.20;4.93;;;;;;;-145.14;100.00;70583.66;5042876;28;20451;-77
2022/11/10 05:27:58;;;;;;;13.20;5.70;;;;;;;-145.14;100.00;70583.66;5048612;28;20462;-75
2022/11/10 05:30:24;;;;;;;15.83;6.00;;;;;;;-145.14;100.00;70583.66;5042108;28;20521;-77
2022/11/10 05:32:49;;;;;;;17.60;5.37;;;;;;;-145.14;100.00;70583.66;5040944;28;20189;-77
2022/11/10 05:35:15;;;;;;;13.20;5.20;;;;;;;-145.14;100.00;70583.66;5040973;28;20636;-77
2022/11/10 05:37:40;;;;;;;14.80;5.70;;;;;;;-145.14;100.00;70583.66;5043297;28;20261;-77
2022/11/10 05:40:06;;;;;;;17.27;5.57;;;;;;;-145.14;100.00;70583.66;5050621;28;20219;-77
2022/11/10 05:42:32;;;;;;;18.60;5.43;;;;;;;-145.14;100.00;70583.66;5040128;28;20195;-76
2022/11/10 05:44:57;;;;;;;20.23;7.07;;;;;;;-145.14;100.00;70583.66;5044632;28;20969;-77
2022/11/10 05:47:23;;;;;;;13.90;5.63;;;;;;;-145.14;100.00;70583.66;5042509;28;20204;-79
2022/11/10 05:49:48;;;;;;;14.53;5.00;;;;;;;-145.14;100.00;70583.66;5045755;28;20190;-77
2022/11/10 05:52:14;;;;;;;14.50;5.93;;;;;;;-145.14;100.00;70583.66;5032158;28;20191;-77
2022/11/10 05:54:39;;;;;;;17.73;5.83;;;;;;;-145.14;100.00;70583.66;5043345;28;20188;-76
2022/11/10 05:57:05;;;;;;;20.77;6.83;;;;;;;-145.14;100.00;70583.66;5053539;28;20211;-77
2022/11/10 05:59:30;;;;;;;18.90;6.60;;;;;;;-145.14;100.00;70583.66;5041471;28;20757;-78
2022/11/10 06:01:56;;;;;;;16.67;5.57;;;;;;;-145.14;100.00;70583.66;5050382;28;20551;-77
2022/11/10 06:04:21;;;;;;;19.00;6.70;;;;;;;-145.14;100.00;70583.66;5044448;28;20187;-78
2022/11/10 06:06:47;;;;;;;14.53;5.50;;;;;;;-145.14;100.00;70583.66;5042530;28;20215;-77
2022/11/10 06:09:12;;;;;;;16.40;6.57;;;;;;;-145.14;100.00;70583.66;5040454;28;20299;-77
2022/11/10 06:11:38;;;;;;;16.87;5.73;;;;;;;-145.14;100.00;70583.66;5031113;28;20211;-77
2022/11/10 06:14:03;;;;;;;14.80;5.30;;;;;;;-145.14;100.00;70583.66;5032221;28;23547;-78
2022/11/10 06:16:29;;;;;;;17.27;5.70;;;;;;;-145.14;100.00;70583.66;5037353;28;20949;-78
2022/11/10 06:18:55;;;;;;;18.87;6.60;;;;;;;-145.14;100.00;70583.66;5032360;28;20602;-78
2022/11/10 06:21:20;;;;;;;18.57;6.70;;;;;;;-145.14;100.00;70583.66;5040120;28;20199;-77
2022/11/10 06:23:46;;;;;;;16.67;6.50;;;;;;;-145.14;100.00;70583.66;5031399;28;20191;-78
2022/11/10 06:26:11;;;;;;;15.77;6.10;;;;;;;-145.14;100.00;70583.66;5044172;28;20216;-79
2022/11/10 06:28:37;;;;;;;19.20;5.80;;;;;;;-145.14;100.00;70583.66;5042984;28;20305;-77
2022/11/10 06:31:02;;;;;;;15.73;5.87;;;;;;;-145.14;100.00;70583.66;5048292;28;20186;-77
2022/11/10 06:33:28;;;;;;;25.30;6.50;;;;;;;-145.14;100.00;70583.66;5032250;28;20209;-78
2022/11/10 06:35:54;;;;;;;14.60;5.77;;;;;;;-145.14;100.00;70583.66;5036305;28;20536;-78
2022/11/10 06:38:19;;;;;;;17.97;6.70;;;;;;;-145.14;100.00;70583.66;5032554;28;20719;-78
2022/11/10 06:40:45;;;;;;;24.37;6.80;;;;;;;-145.14;100.00;70583.66;5031663;28;20529;-77
2022/11/10 06:43:10;;;;;;;16.03;6.30;;;;;;;-145.14;100.00;70583.66;5033949;28;20192;-79
2022/11/10 06:45:36;;;;;;;13.23;5.73;;;;;;;-145.14;100.00;70583.66;5037017;28;20199;-78
2022/11/10 06:48:15;;;;;;;17.23;6.40;;;;;;;-145.14;100.00;70583.66;5046664;28;20267;-77
2022/11/10 06:50:40;;;;;;;15.50;6.80;;;;;;;-145.14;100.00;70583.66;5044962;28;20638;-78
2022/11/10 06:53:06;;;;;;;24.47;8.07;;;;;;;-145.14;100.00;70583.66;5041494;28;20446;-79
2022/11/10 06:55:31;;;;;;;21.13;6.63;;;;;;;-145.14;100.00;70583.66;5032424;28;20192;-78
2022/11/10 06:57:57;;;;;;;17.47;6.27;;;;;;;-145.14;100.00;70583.66;5040530;28;20250;-78
2022/11/10 07:00:24;;;;;;;17.37;6.43;;;;;;;-145.14;100.00;70583.66;5040977;28;20199;-79
2022/11/10 07:03:04;;;;;;;16.23;6.20;;;;;;;-145.14;100.00;70583.66;5037227;28;20706;-78
2022/11/10 07:05:31;;;;;;;23.00;7.30;;;;;;;-145.14;100.00;70583.66;5034230;28;20540;-79
2022/11/10 07:08:15;;;;;;;22.60;6.53;;;;;;;-145.14;100.00;70583.66;5036073;28;20469;-79
2022/11/10 07:10:50;;;;;;;24.03;6.97;;;;;;;-145.14;100.00;70583.66;5035892;28;20431;-78
2022/11/10 07:13:15;;;;;;;19.87;7.27;;;;;;;-145.14;100.00;70583.66;5052101;28;20449;-78
2022/11/10 07:15:41;;;;;;;15.00;6.90;;;;;;;-145.14;100.00;70583.66;5038802;28;20828;-78
2022/11/10 07:18:06;;;;;;;19.50;7.10;;;;;;;-145.14;100.00;70583.66;5038820;28;20252;-77
2022/11/10 07:20:32;;;;;;;18.27;6.27;;;;;;;-145.14;100.00;70583.66;5038514;28;20274;-77
2022/11/10 07:22:59;;;;;;;16.43;6.93;;;;;;;-145.14;100.00;70583.66;5037603;28;20245;-76
2022/11/10 07:25:25;;;;;;;18.63;6.87;;;;;;;-145.14;100.00;70583.66;5029793;28;20656;-77
2022/11/10 07:27:59;;;;;;;21.67;7.70;;;;;;;-145.14;100.00;70583.66;5031080;28;20467;-76
2022/11/10 07:30:28;;;;;;;16.70;7.27;;;;;;;-145.14;100.00;70583.66;5038804;28;20441;-77
2022/11/10 07:33:00;;;;;;;24.20;7.20;;;;;;;-145.14;100.00;70583.66;5047750;28;20455;-76
2022/11/10 07:35:27;;;;;;;22.37;7.23;;;;;;;-145.14;100.00;70583.66;5051513;28;20923;-80
2022/11/10 07:37:57;;;;;;;19.80;6.80;;;;;;;-145.14;100.00;70583.66;5045944;28;21047;-78
2022/11/10 07:40:23;;;;;;;20.50;6.97;;;;;;;-145.14;100.00;70583.66;5049275;28;20445;-78
2022/11/10 07:42:49;;;;;;;15.23;6.47;;;;;;;-145.14;100.00;70583.66;5047767;28;20897;-78
2022/11/10 07:45:14;;;;;;;18.57;7.50;;;;;;;-145.14;100.00;70583.66;5042855;28;20438;-78
2022/11/10 07:47:40;;;;;;;18.13;6.53;;;;;;;-145.14;100.00;70583.66;5050555;28;20702;-78
2022/11/10 07:50:06;;;;;;;16.90;6.60;;;;;;;-145.14;100.00;70583.66;5051212;28;20179;-78
2022/11/10 07:52:32;;;;;;;27.33;7.50;;;;;;;-145.14;100.00;70583.66;5045327;28;20237;-78
2022/11/10 07:54:57;;;;;;;26.43;7.73;;;;;;;-145.14;100.00;70583.66;5043920;28;20885;-79
2022/11/10 07:57:23;;;;;;;19.30;7.83;;;;;;;-145.14;100.00;70583.66;5041073;28;20776;-79
2022/11/10 07:59:48;;;;;;;20.30;7.17;;;;;;;-145.14;100.00;70583.66;5035091;28;20635;-76
2022/11/10 08:02:14;;;;;;;21.50;8.20;;;;;;;-145.14;100.00;70583.66;5033602;28;20188;-77
2022/11/10 08:04:39;;;;;;;13.80;6.93;;;;;;;-145.14;100.00;70583.66;5044084;28;20366;-77
2022/11/10 08:07:05;;;;;;;23.10;7.60;;;;;;;-145.14;100.00;70583.66;5047480;28;20207;-76
2022/11/10 08:09:30;;;;;;;18.23;6.60;;;;;;;-145.14;100.00;70583.66;5044010;28;20273;-77
2022/11/10 08:11:56;;;;;;;16.43;6.50;;;;;;;-145.14;100.00;70583.66;5044023;28;21053;-78
2022/11/10 08:14:21;;;;;;;26.10;8.50;;;;;;;-145.14;100.00;70583.66;5039002;28;20193;-78
2022/11/10 08:16:47;;;;;;;20.10;7.47;;;;;;;-145.14;100.00;70583.66;5046183;28;20214;-79
2022/11/10 08:19:12;;;;;;;18.57;6.93;;;;;;;-145.14;100.00;70583.66;5040364;28;20681;-78
2022/11/10 08:21:38;;;;;;;22.50;8.47;;;;;;;-145.14;100.00;70583.66;5037480;28;20219;-77
2022/11/10 08:24:03;;;;;;;15.70;7.07;;;;;;;-145.14;100.00;70583.66;5049227;28;20272;-79
2022/11/10 08:26:29;;;;;;;22.53;7.80;;;;;;;-145.14;100.00;70583.66;5038595;28;20845;-76
2022/11/10 08:28:54;;;;;;;17.73;7.70;;;;;;;-145.14;100.00;70583.66;5042255;28;20192;-77
2022/11/10 08:31:20;;;;;;;18.07;7.20;;;;;;;-145.14;100.00;70583.66;5051597;28;20278;-77
2022/11/10 08:33:45;;;;;;;23.33;8.40;;;;;;;-145.14;100.00;70583.66;5049514;28;20184;-77
2022/11/10 08:36:11;;;;;;;21.57;8.30;;;;;;;-145.14;100.00;70583.66;5041486;28;20194;-77
2022/11/10 08:38:36;;;;;;;16.37;7.50;;;;;;;-145.14;100.00;70583.66;5042900;28;20791;-74
2022/11/10 08:41:02;;;;;;;24.43;7.33;;;;;;;-145.14;100.00;70583.66;5045769;28;20188;-76
2022/11/10 08:43:27;;;;;;;23.83;9.10;;;;;;;-145.14;100.00;70583.66;5027434;28;20191;-77
2022/11/10 08:45:57;;;;;;;24.50;8.47;;;;;;;-145.14;100.00;70583.66;5048060;28;20222;-77
2022/11/10 08:48:23;;;;;;;21.67;8.40;;;;;;;-145.14;100.00;70583.66;5045919;28;20207;-78
2022/11/10 08:50:50;;;;;;;22.87;7.50;;;;;;;-145.14;100.00;70583.66;5044525;28;20520;-78
2022/11/10 08:53:18;;;;;;;18.90;8.57;;;;;;;-145.14;100.00;70583.66;5064755;28;20869;-79
2022/11/10 08:55:44;;;;;;;17.03;8.60;;;;;;;-145.14;100.00;70583.66;5034342;28;20540;-77
2022/11/10 08:58:18;;;;;;;29.67;8.80;;;;;;;-145.14;100.00;70583.66;5043474;28;20535;-77
2022/11/10 09:00:44;;;;;;;19.40;8.37;;;;;;;-145.14;100.00;70583.66;5041886;28;20445;-78
2022/11/10 09:03:19;;;;;;;24.60;8.90;;;;;;;-145.14;100.00;70583.66;5039307;28;20489;-77
2022/11/10 09:05:45;;;;;;;23.33;8.40;;;;;;;-145.14;100.00;70583.66;5042384;28;20443;-77
2022/11/10 09:08:11;;;;;;;22.83;8.03;;;;;;;-145.14;100.00;70583.66;5034546;28;20675;-78
2022/11/10 09:10:43;;;;;;;20.87;6.73;;;;;;;-145.14;100.00;70583.66;5043728;28;20460;-77
2022/11/10 09:13:10;;;;;;;28.63;8.57;;;;;;;-145.14;100.00;70583.66;5033610;28;20291;-78
2022/11/10 09:15:35;;;;;;;19.70;6.90;;;;;;;-145.14;100.00;70583.66;5047011;28;20446;-78
2022/11/10 09:18:03;;;;;;;25.03;8.27;;;;;;;-145.14;100.00;70583.66;5033117;28;20831;-76
2022/11/10 09:20:31;;;;;;;19.53;8.00;;;;;;;-145.14;100.00;70583.66;5049123;28;20206;-77
2022/11/10 09:23:04;;;;;;;19.83;7.93;;;;;;;-145.14;100.00;70583.66;5047563;28;20830;-78
2022/11/10 09:25:29;;;;;;;23.00;8.00;;;;;;;-145.14;100.00;70583.66;5037175;28;20526;-78
2022/11/10 09:27:55;;;;;;;21.47;8.20;;;;;;;-145.14;100.00;70583.66;5042310;28;20466;-75
2022/11/10 09:30:20;;;;;;;18.53;7.33;;;;;;;-145.14;100.00;70583.66;5041514;28;20649;-77
2022/11/10 09:32:52;;;;;;;26.40;7.90;;;;;;;-145.14;100.00;70583.66;5053395;28;20285;-77
2022/11/10 09:35:17;;;;;;;17.53;7.37;;;;;;;-145.14;100.00;70583.66;5038245;28;20198;-76
2022/11/10 09:37:43;;;;;;;20.83;7.10;;;;;;;-145.14;100.00;70583.66;5048083;28;20463;-78
2022/11/10 09:40:16;;;;;;;24.07;8.83;;;;;;;-145.14;100.00;70583.66;5043264;28;20211;-78
2022/11/10 09:42:43;;;;;;;19.93;7.13;;;;;;;-145.14;100.00;70583.66;5041308;28;20184;-77
2022/11/10 09:45:32;;;;;;;21.03;7.50;;;;;;;-145.14;100.00;70583.66;5038467;28;21001;-76
2022/11/10 09:48:04;;;;;;;12.43;6.10;;;;;;;-145.14;100.00;70583.66;5034724;28;20816;-78
2022/11/10 09:50:36;;;;;;;14.23;6.07;;;;;;;-145.14;100.00;70583.66;5045914;28;20441;-78
2022/11/10 09:53:05;;;;;;;21.40;6.50;;;;;;;-145.14;100.00;70583.66;5045835;28;20433;-77
2022/11/10 09:55:39;;;;;;;13.13;4.80;;;;;;;-145.14;100.00;70583.66;5032214;28;20469;-77
2022/11/10 09:58:04;;;;;;;19.10;6.40;;;;;;;-145.14;100.00;70583.66;5038207;28;20544;-77
2022/11/10 10:00:33;;;;;;;19.90;5.60;;;;;;;-145.14;100.00;70583.66;5035392;28;20433;-77
2022/11/10 10:03:02;;;;;;;15.90;5.07;;;;;;;-145.14;100.00;70583.66;5045461;28;20188;-78
2022/11/10 10:05:30;;;;;;;12.70;4.60;;;;;;;-145.14;100.00;70583.66;5039239;28;20438;-78
2022/11/10 10:08:01;;;;;;;22.13;5.80;;;;;;;-145.14;100.00;70583.66;5037018;28;21016;-80
2022/11/10 10:11:03;;;;;;;14.23;4.33;;;;;;;-145.14;100.00;70583.66;5044583;28;20446;-79
2022/11/10 10:13:50;;;;;;;20.07;5.40;;;;;;;-145.14;100.00;70583.66;5033245;28;20441;-78
2022/11/10 10:16:47;;;;;;;15.63;4.90;;;;;;;-145.14;100.00;70583.66;5041246;28;20465;-78
2022/11/10 10:19:21;;;;;;;14.93;5.07;;;;;;;-145.14;100.00;70583.66;5032275;28;20466;-79
2022/11/10 10:21:46;;;;;;;16.00;4.70;;;;;;;-145.14;100.00;70583.66;5040707;28;20452;-77
2022/11/10 10:24:15;;;;;;;14.50;4.63;;;;;;;-145.14;100.00;70583.66;5059006;28;20421;-80
2022/11/10 10:26:48;;;;;;;14.97;5.07;;;;;;;-145.14;100.00;70583.66;5055148;28;20187;-81
2022/11/10 10:29:21;;;;;;;21.00;5.00;;;;;;;-145.14;100.00;70583.66;5049028;28;20472;-80
2022/11/10 10:31:49;;;;;;;23.30;5.13;;;;;;;-145.14;100.00;70583.66;5053841;28;20437;-80
2022/11/10 10:34:23;;;;;;;15.57;5.10;;;;;;;-145.14;100.00;70583.66;5048602;28;20445;-78
2022/11/10 10:36:49;;;;;;;17.80;5.27;;;;;;;-145.14;100.00;70583.66;5052540;28;20945;-79
2022/11/10 10:39:30;;;;;;;20.33;5.13;;;;;;;-145.14;100.00;70583.66;5048239;28;20478;-80
2022/11/10 10:41:56;;;;;;;21.60;5.00;;;;;;;-145.14;100.00;70583.66;5052232;28;20740;-79
2022/11/10 10:44:22;;;;;;;13.03;4.77;;;;;;;-145.14;100.00;70583.66;5055637;28;20438;-80
2022/11/10 10:46:58;;;;;;;20.53;5.23;;;;;;;-145.14;100.00;70583.66;5049655;28;20469;-78
2022/11/10 10:49:29;;;;;;;20.00;4.90;;;;;;;-145.14;100.00;70583.66;5050594;28;20195;-79
2022/11/10 10:52:12;;;;;;;15.83;4.47;;;;;;;-145.14;100.00;70583.66;5053955;28;20921;-77
2022/11/10 10:54:39;;;;;;;21.53;6.50;;;;;;;-145.14;100.00;70583.66;5054447;28;20442;-81
2022/11/10 10:57:24;;;;;;;16.90;4.20;;;;;;;-145.14;100.00;70583.66;5050510;28;20552;-80
2022/11/10 10:59:50;;;;;;;15.40;4.73;;;;;;;-145.14;100.00;70583.66;5055941;28;20477;-79
2022/11/10 11:02:29;;;;;;;17.27;4.10;;;;;;;-145.14;100.00;70583.66;5056762;28;20453;-77
2022/11/10 11:05:14;;;;;;;19.23;4.37;;;;;;;-145.14;100.00;70583.66;5052621;28;20443;-79
2022/11/10 11:07:40;;;;;;;20.23;3.70;;;;;;;-145.14;100.00;70583.66;5047344;28;20465;-78
2022/11/10 11:10:21;;;;;;;14.70;3.93;;;;;;;-145.14;100.00;70583.66;5055493;28;20429;-79
2022/11/10 11:12:46;;;;;;;21.67;3.80;;;;;;;-145.14;100.00;70583.66;5052796;28;20430;-80
2022/11/10 11:15:29;;;;;;;12.60;3.83;;;;;;;-145.14;100.00;70583.66;5050111;28;20438;-80
2022/11/10 11:18:01;;;;;;;19.70;4.93;;;;;;;-145.14;100.00;70583.66;5048772;28;20241;-80